Time;durP1;ratioP1;P1;durP2;ratioP2;P2;SDS_P1;SDS_P2;PMS_P1;PMS_P2;Temp;Humidity;BMP_temperature;BMP_pressure;BME280_temperature;BME280_humidity;BME280_pressure;Samples;Min_cycle;Max_cycle;Signal;HPM_P1;HPM_P2
2023/08/03 00:01:31;;;;;;;1.77;1.00;;;18.20;99.90;;;;;;4933286;28;21209;-84
2023/08/03 00:04:00;;;;;;;2.67;0.90;;;18.40;99.90;;;;;;4963461;28;20590;-82
2023/08/03 00:06:27;;;;;;;1.67;0.93;;;18.40;99.90;;;;;;4952199;28;20516;-84
2023/08/03 00:08:54;;;;;;;4.37;1.10;;;18.40;99.90;;;;;;4961607;28;20045;-84
2023/08/03 00:11:20;;;;;;;4.15;1.30;;;18.40;99.90;;;;;;4977888;28;20476;-85
2023/08/03 00:13:46;;;;;;;3.40;1.30;;;18.40;99.90;;;;;;4951725;28;20025;-83
2023/08/03 00:16:12;;;;;;;3.95;1.50;;;18.40;99.90;;;;;;4930820;28;20022;-85
2023/08/03 00:18:37;;;;;;;3.33;1.00;;;18.40;99.90;;;;;;4984469;28;20261;-84
2023/08/03 00:21:03;;;;;;;4.22;1.10;;;18.40;99.90;;;;;;4960176;28;20482;-84
2023/08/03 00:23:29;;;;;;;3.47;1.00;;;18.40;99.90;;;;;;4962192;28;20021;-82
2023/08/03 00:25:55;;;;;;;2.95;1.00;;;18.40;99.90;;;;;;4973471;28;20031;-83
2023/08/03 00:28:22;;;;;;;2.45;1.02;;;18.40;99.90;;;;;;4959475;28;20034;-86
2023/08/03 00:30:47;;;;;;;5.93;1.30;;;18.40;99.90;;;;;;4951988;28;20107;-86
2023/08/03 00:33:13;;;;;;;4.10;1.20;;;18.40;99.90;;;;;;4967174;28;20111;-86
2023/08/03 00:35:39;;;;;;;5.63;1.30;;;18.40;99.90;;;;;;4963418;28;20215;-85
2023/08/03 00:38:05;;;;;;;5.38;1.50;;;18.40;99.90;;;;;;4946710;28;20030;-86
2023/08/03 00:40:33;;;;;;;4.87;1.40;;;18.40;99.90;;;;;;4960623;28;20034;-85
2023/08/03 00:42:59;;;;;;;4.65;1.33;;;18.40;99.90;;;;;;4949322;28;20034;-83
2023/08/03 00:45:25;;;;;;;4.03;1.40;;;18.30;99.90;;;;;;4980878;28;20081;-85
2023/08/03 00:47:50;;;;;;;4.03;1.47;;;18.30;99.90;;;;;;4934823;28;20026;-83
2023/08/03 00:50:17;;;;;;;5.13;1.38;;;18.30;99.90;;;;;;4963988;28;20052;-82
2023/08/03 00:52:42;;;;;;;4.60;1.40;;;18.30;99.90;;;;;;4940175;28;20064;-83
2023/08/03 00:55:08;;;;;;;4.60;1.43;;;18.30;99.90;;;;;;4967763;28;20022;-82
2023/08/03 00:57:34;;;;;;;5.63;2.00;;;18.40;99.90;;;;;;4967675;28;20030;-83
2023/08/03 01:00:00;;;;;;;5.50;1.70;;;18.30;99.90;;;;;;4968268;28;20467;-87
2023/08/03 01:02:26;;;;;;;5.35;1.45;;;18.30;99.90;;;;;;4957485;28;20492;-85
2023/08/03 01:04:52;;;;;;;4.10;1.67;;;18.30;99.90;;;;;;4963912;28;20581;-85
2023/08/03 01:07:18;;;;;;;4.47;1.77;;;18.30;99.90;;;;;;4968097;28;20088;-82
2023/08/03 01:09:43;;;;;;;7.90;2.63;;;18.40;99.90;;;;;;4947936;28;20277;-83
2023/08/03 01:12:09;;;;;;;5.80;1.60;;;18.40;99.90;;;;;;4967505;28;20054;-82
2023/08/03 01:14:35;;;;;;;5.83;1.60;;;18.40;99.90;;;;;;4967695;28;20616;-83
2023/08/03 01:17:01;;;;;;;3.70;1.48;;;18.50;99.90;;;;;;4955490;28;20232;-82
2023/08/03 01:19:27;;;;;;;6.10;1.83;;;18.40;99.90;;;;;;4970643;28;20030;-83
2023/08/03 01:21:54;;;;;;;6.80;2.07;;;18.40;99.90;;;;;;4983740;28;20432;-82
2023/08/03 01:24:20;;;;;;;4.45;1.70;;;18.40;99.90;;;;;;4955965;28;20391;-85
2023/08/03 01:26:46;;;;;;;5.67;1.47;;;18.50;99.90;;;;;;4952274;28;20675;-84
2023/08/03 01:29:12;;;;;;;3.23;1.40;;;18.40;99.90;;;;;;4952428;28;20266;-86
2023/08/03 01:31:39;;;;;;;4.95;1.70;;;18.50;99.90;;;;;;4971420;28;20377;-86
2023/08/03 01:34:05;;;;;;;7.17;2.37;;;18.50;99.90;;;;;;4956020;28;20108;-85
2023/08/03 01:36:31;;;;;;;4.35;1.67;;;18.40;99.90;;;;;;4954503;28;20782;-85
2023/08/03 01:39:09;;;;;;;4.60;1.60;;;18.50;99.90;;;;;;4943928;28;20092;-85
2023/08/03 01:41:36;;;;;;;4.20;1.70;;;18.40;99.90;;;;;;4968211;28;20030;-84
2023/08/03 01:44:29;;;;;;;5.43;1.92;;;18.50;99.90;;;;;;4952272;28;20045;-83
2023/08/03 01:46:57;;;;;;;4.13;1.60;;;18.50;99.90;;;;;;4964150;28;20109;-84
2023/08/03 01:49:24;;;;;;;4.80;1.70;;;18.50;99.90;;;;;;4949878;28;20284;-82
2023/08/03 01:51:50;;;;;;;4.85;1.48;;;18.50;99.90;;;;;;4966186;28;20033;-86
2023/08/03 01:54:16;;;;;;;4.82;1.45;;;18.50;99.90;;;;;;4961573;28;20641;-82
2023/08/03 01:56:42;;;;;;;6.33;1.77;;;18.50;99.90;;;;;;4964157;28;20049;-84
2023/08/03 01:59:08;;;;;;;5.28;1.73;;;18.50;99.90;;;;;;4946680;28;20101;-83
2023/08/03 02:01:34;;;;;;;4.47;1.50;;;18.60;99.90;;;;;;4978947;28;20441;-81
2023/08/03 02:04:00;;;;;;;5.17;1.60;;;18.60;99.90;;;;;;4963064;28;20046;-83
2023/08/03 02:06:26;;;;;;;3.53;1.60;;;18.60;99.90;;;;;;4960520;28;20050;-84
2023/08/03 02:08:53;;;;;;;4.88;1.55;;;18.60;99.90;;;;;;4962998;28;20102;-85
2023/08/03 02:11:19;;;;;;;4.38;1.50;;;18.60;99.90;;;;;;4937709;28;20022;-81
2023/08/03 02:13:44;;;;;;;4.20;1.70;;;18.60;99.90;;;;;;4951925;28;20053;-83
2023/08/03 02:16:10;;;;;;;3.97;1.63;;;18.60;99.90;;;;;;4937412;28;20339;-83
2023/08/03 02:18:38;;;;;;;5.35;1.77;;;18.60;99.90;;;;;;4965765;28;20772;-82
2023/08/03 02:21:04;;;;;;;5.33;1.77;;;18.60;99.90;;;;;;4920988;28;20042;-85
2023/08/03 02:23:31;;;;;;;4.72;1.95;;;19.40;99.90;;;;;;4963380;28;20470;-82
2023/08/03 02:25:57;;;;;;;4.32;2.22;;;16.70;99.90;;;;;;4961344;28;20026;-86
2023/08/03 02:28:22;;;;;;;3.85;1.40;;;18.60;99.90;;;;;;4953243;28;20515;-84
2023/08/03 02:30:48;;;;;;;4.20;1.50;;;18.70;99.90;;;;;;4947392;28;20023;-87
2023/08/03 02:33:14;;;;;;;5.35;1.63;;;18.70;99.90;;;;;;4963314;28;20279;-83
2023/08/03 02:35:40;;;;;;;7.10;1.80;;;18.70;99.90;;;;;;4940502;28;20055;-81
2023/08/03 02:38:06;;;;;;;5.13;1.80;;;18.70;99.90;;;;;;4958980;28;20084;-85
2023/08/03 02:40:32;;;;;;;7.60;1.67;;;18.60;99.90;;;;;;4964571;28;20291;-84
2023/08/03 02:42:58;;;;;;;3.70;1.40;;;18.60;99.90;;;;;;4930660;28;20029;-83
2023/08/03 02:45:24;;;;;;;4.18;1.70;;;18.50;99.90;;;;;;4938507;28;20026;-83
2023/08/03 02:47:49;;;;;;;5.53;1.50;;;18.60;99.90;;;;;;4949775;28;20019;-85
2023/08/03 02:50:15;;;;;;;3.23;1.50;;;18.50;99.90;;;;;;4963385;28;20554;-83
2023/08/03 02:52:41;;;;;;;3.78;1.70;;;18.50;99.90;;;;;;4930273;28;20026;-82
2023/08/03 02:55:07;;;;;;;4.00;1.53;;;18.50;99.90;;;;;;4974748;28;20023;-83
2023/08/03 02:57:33;;;;;;;4.68;1.67;;;18.50;99.90;;;;;;4949921;28;20476;-83
2023/08/03 02:59:58;;;;;;;2.73;1.30;;;18.50;99.90;;;;;;4949412;28;20041;-87
2023/08/03 03:02:24;;;;;;;3.83;1.58;;;18.50;99.90;;;;;;4962504;28;20129;-83
2023/08/03 03:04:50;;;;;;;4.05;1.42;;;18.50;99.90;;;;;;4965589;28;20524;-83
2023/08/03 03:07:16;;;;;;;2.83;1.37;;;18.50;99.90;;;;;;4926465;28;20738;-83
2023/08/03 03:09:41;;;;;;;3.63;1.60;;;18.50;99.90;;;;;;4962580;28;20108;-85
2023/08/03 03:12:08;;;;;;;5.37;1.60;;;18.50;99.90;;;;;;4952122;28;20180;-84
2023/08/03 03:14:35;;;;;;;4.10;1.65;;;18.50;99.90;;;;;;4935792;28;20436;-84
2023/08/03 03:17:01;;;;;;;3.00;1.45;;;18.50;99.90;;;;;;4936371;28;20107;-84
2023/08/03 03:19:27;;;;;;;3.00;1.33;;;18.50;99.90;;;;;;4948849;28;20054;-82
2023/08/03 03:21:53;;;;;;;2.20;1.30;;;18.40;99.90;;;;;;4953485;28;20104;-85
2023/08/03 03:24:19;;;;;;;2.78;1.40;;;18.40;99.90;;;;;;4976192;28;20141;-84
2023/08/03 03:26:44;;;;;;;3.15;1.50;;;18.40;99.90;;;;;;4968733;28;20076;-81
2023/08/03 03:29:10;;;;;;;4.30;1.60;;;18.40;99.90;;;;;;4944692;28;20107;-83
2023/08/03 03:31:36;;;;;;;3.30;1.50;;;18.40;99.90;;;;;;4951148;28;20037;-82
2023/08/03 03:34:01;;;;;;;3.07;1.47;;;18.40;99.90;;;;;;4946499;28;20030;-83
2023/08/03 03:36:27;;;;;;;4.22;1.40;;;18.30;99.90;;;;;;4949601;28;20039;-84
2023/08/03 03:38:53;;;;;;;2.47;1.30;;;18.30;99.90;;;;;;4951467;28;20052;-86
2023/08/03 03:41:19;;;;;;;4.00;1.40;;;18.30;99.90;;;;;;4955666;28;20248;-82
2023/08/03 03:43:45;;;;;;;3.35;1.33;;;18.30;99.90;;;;;;4970580;28;20333;-83
2023/08/03 03:46:11;;;;;;;4.57;1.57;;;17.00;99.90;;;;;;4943111;28;20034;-84
2023/08/03 03:48:36;;;;;;;3.47;1.50;;;18.20;99.90;;;;;;4948056;28;20065;-87
2023/08/03 03:51:02;;;;;;;3.90;1.70;;;18.30;99.90;;;;;;4946776;28;20384;-85
2023/08/03 03:53:28;;;;;;;4.28;1.85;;;18.20;99.90;;;;;;4950135;28;20162;-82
2023/08/03 03:55:53;;;;;;;3.23;1.43;;;18.20;99.90;;;;;;4944002;28;20038;-86
2023/08/03 03:58:19;;;;;;;4.13;1.70;;;18.20;99.90;;;;;;4962878;28;20030;-84
2023/08/03 04:00:45;;;;;;;3.60;1.30;;;18.20;99.90;;;;;;4931837;28;20027;-83
2023/08/03 04:03:11;;;;;;;5.70;1.58;;;18.20;99.90;;;;;;4978559;28;20220;-85
2023/08/03 04:05:38;;;;;;;4.32;1.60;;;18.20;99.90;;;;;;4982052;28;20104;-83
2023/08/03 04:08:04;;;;;;;3.50;1.40;;;18.20;99.90;;;;;;4969488;28;20535;-87
2023/08/03 04:10:30;;;;;;;4.68;1.70;;;18.20;99.90;;;;;;4941585;28;20014;-85
2023/08/03 04:12:56;;;;;;;3.50;1.80;;;18.20;99.90;;;;;;4951838;28;20084;-85
2023/08/03 04:15:22;;;;;;;3.08;1.60;;;18.20;99.90;;;;;;4977581;28;20140;-84
2023/08/03 04:17:48;;;;;;;3.00;1.60;;;18.20;99.90;;;;;;4963323;28;20417;-83
2023/08/03 04:20:17;;;;;;;3.05;1.60;;;18.20;99.90;;;;;;4942849;28;20257;-84
2023/08/03 04:22:43;;;;;;;3.22;1.60;;;18.20;99.90;;;;;;4948937;28;20018;-84
2023/08/03 04:25:10;;;;;;;3.03;1.65;;;;;;;;;;4910221;28;20049;-83
2023/08/03 04:27:36;;;;;;;3.92;1.98;;;18.20;99.90;;;;;;4957762;28;20030;-85
2023/08/03 04:30:02;;;;;;;2.40;1.40;;;18.10;99.90;;;;;;4972114;28;20480;-83
2023/08/03 04:32:28;;;;;;;4.70;1.88;;;;;;;;;;4940388;28;20120;-87
2023/08/03 04:34:54;;;;;;;3.38;1.27;;;18.20;99.90;;;;;;4945835;28;20037;-86
2023/08/03 04:37:20;;;;;;;1.80;1.30;;;18.20;99.90;;;;;;4965982;28;20315;-83
2023/08/03 04:39:46;;;;;;;3.72;1.40;;;18.20;99.90;;;;;;4948450;28;20505;-84
2023/08/03 04:42:12;;;;;;;3.45;1.45;;;18.20;99.90;;;;;;4938677;28;20124;-87
2023/08/03 04:44:37;;;;;;;2.93;1.30;;;18.20;99.90;;;;;;4964571;28;20393;-86
2023/08/03 04:47:04;;;;;;;2.60;1.23;;;19.20;99.90;;;;;;4929635;28;20085;-85
2023/08/03 04:49:29;;;;;;;3.60;1.20;;;18.20;99.90;;;;;;4950211;28;20768;-88
2023/08/03 04:51:55;;;;;;;1.67;1.13;;;18.20;99.90;;;;;;4943379;28;20026;-85
2023/08/03 04:54:21;;;;;;;1.87;1.23;;;18.20;99.90;;;;;;4943783;28;20035;-86
2023/08/03 04:56:47;;;;;;;2.58;1.10;;;18.20;99.90;;;;;;4971212;28;20037;-86
2023/08/03 04:59:13;;;;;;;2.17;1.10;;;18.20;99.90;;;;;;4945865;28;20557;-84
2023/08/03 05:01:39;;;;;;;1.70;1.10;;;18.20;99.90;;;;;;4946083;28;20042;-82
2023/08/03 05:04:04;;;;;;;1.85;0.95;;;18.20;99.90;;;;;;4932952;28;20043;-84
2023/08/03 05:06:33;;;;;;;1.90;0.80;;;18.20;99.90;;;;;;4954680;28;20026;-89
2023/08/03 05:08:59;;;;;;;2.80;1.10;;;18.20;99.90;;;;;;4968999;28;20442;-85
2023/08/03 05:11:25;;;;;;;1.80;0.95;;;18.20;99.90;;;;;;4956860;28;20038;-86
2023/08/03 05:13:51;;;;;;;1.80;0.88;;;18.20;99.90;;;;;;4944820;28;20566;-83
2023/08/03 05:16:23;;;;;;;2.43;1.03;;;18.20;99.90;;;;;;4988257;28;20204;-86
2023/08/03 05:18:49;;;;;;;1.80;1.10;;;18.20;99.90;;;;;;4922734;28;20439;-84
2023/08/03 05:21:14;;;;;;;2.43;1.10;;;18.30;99.90;;;;;;4980913;28;20096;-83
2023/08/03 05:23:40;;;;;;;2.25;1.10;;;;;;;;;;4948608;28;20467;-83
2023/08/03 05:26:06;;;;;;;1.60;1.00;;;18.30;99.90;;;;;;4937417;28;20034;-87
2023/08/03 05:28:32;;;;;;;1.40;1.07;;;;;;;;;;4958739;28;20116;-84
2023/08/03 05:30:58;;;;;;;1.20;1.00;;;18.30;99.90;;;;;;4964771;28;20026;-86
2023/08/03 05:33:24;;;;;;;1.85;1.10;;;18.30;99.90;;;;;;4943728;28;20084;-83
2023/08/03 05:35:49;;;;;;;3.10;1.00;;;18.30;99.90;;;;;;4946747;28;20026;-85
2023/08/03 05:38:15;;;;;;;1.02;0.90;;;18.30;99.90;;;;;;4947526;28;20039;-86
2023/08/03 05:40:41;;;;;;;1.47;1.00;;;18.30;99.90;;;;;;4939850;28;20074;-85
2023/08/03 05:43:12;;;;;;;1.75;1.00;;;18.30;99.90;;;;;;4965665;28;20022;-84
2023/08/03 05:45:43;;;;;;;2.03;1.10;;;18.30;99.90;;;;;;4963605;28;20057;-82
2023/08/03 05:48:14;;;;;;;2.38;1.00;;;18.40;99.90;;;;;;4961285;28;20708;-85
2023/08/03 05:50:48;;;;;;;1.37;1.00;;;18.40;99.90;;;;;;4947879;28;20024;-85
2023/08/03 05:53:15;;;;;;;1.30;0.90;;;18.40;99.90;;;;;;4953822;28;20049;-85
2023/08/03 05:55:41;;;;;;;1.42;0.80;;;;;;;;;;4942032;28;20037;-88
2023/08/03 05:58:14;;;;;;;1.83;0.90;;;18.40;99.90;;;;;;4950066;28;20318;-84
2023/08/03 06:00:42;;;;;;;1.10;0.80;;;18.50;99.90;;;;;;4969860;28;20030;-86
2023/08/03 06:03:15;;;;;;;2.50;0.80;;;18.50;99.90;;;;;;4937696;28;20124;-84
2023/08/03 06:05:43;;;;;;;2.72;1.00;;;18.50;99.90;;;;;;4943333;28;20066;-86
2023/08/03 06:08:20;;;;;;;2.08;1.00;;;18.60;99.90;;;;;;4948634;28;20508;-84
2023/08/03 06:10:52;;;;;;;1.67;0.98;;;18.60;99.90;;;;;;4931680;28;20014;-84
2023/08/03 06:13:20;;;;;;;1.10;0.98;;;18.60;99.90;;;;;;4958458;28;20068;-85
2023/08/03 06:15:47;;;;;;;2.23;0.97;;;18.60;99.90;;;;;;4929587;28;20026;-87
2023/08/03 06:18:21;;;;;;;2.25;1.00;;;18.60;99.90;;;;;;4975996;28;20497;-85
2023/08/03 06:20:52;;;;;;;1.90;0.80;;;18.60;99.90;;;;;;4959967;28;20042;-87
2023/08/03 06:23:23;;;;;;;1.48;0.90;;;18.60;99.90;;;;;;4960010;28;20113;-85
2023/08/03 06:25:51;;;;;;;2.35;1.20;;;18.60;99.90;;;;;;4964160;28;20516;-82
2023/08/03 06:28:19;;;;;;;2.27;0.90;;;18.60;99.90;;;;;;4975815;28;20432;-84
2023/08/03 06:30:46;;;;;;;1.65;0.75;;;18.60;99.90;;;;;;4932565;28;20076;-84
2023/08/03 06:33:14;;;;;;;2.63;1.00;;;18.60;99.90;;;;;;4942889;28;20031;-85
2023/08/03 06:35:42;;;;;;;1.45;1.00;;;18.50;99.90;;;;;;4969634;28;20018;-87
2023/08/03 06:38:32;;;;;;;1.50;0.82;;;18.60;99.90;;;;;;4960945;28;20208;-80
2023/08/03 06:40:58;;;;;;;1.93;0.83;;;18.70;99.90;;;;;;4940371;28;21028;-85
2023/08/03 06:43:24;;;;;;;1.80;0.95;;;18.70;99.90;;;;;;4952576;28;20034;-83
2023/08/03 06:45:50;;;;;;;2.15;0.90;;;18.70;99.90;;;;;;4957233;28;20037;-83
2023/08/03 06:48:16;;;;;;;1.77;0.98;;;18.80;99.90;;;;;;4973819;28;20030;-85
2023/08/03 06:50:43;;;;;;;2.70;1.00;;;18.70;99.90;;;;;;4961620;28;20068;-85
2023/08/03 06:53:10;;;;;;;3.15;1.00;;;18.80;99.90;;;;;;4937376;28;20108;-87
2023/08/03 06:55:36;;;;;;;3.00;0.90;;;18.80;99.90;;;;;;4980333;28;20038;-87
2023/08/03 06:58:03;;;;;;;2.13;1.00;;;18.80;99.90;;;;;;4948722;28;20562;-83
2023/08/03 07:00:28;;;;;;;2.10;0.90;;;18.80;99.90;;;;;;4952217;28;20635;-82
2023/08/03 07:02:54;;;;;;;2.58;0.90;;;18.90;99.90;;;;;;4955328;28;20223;-81
2023/08/03 07:05:20;;;;;;;2.55;1.05;;;19.00;99.90;;;;;;4943299;28;20054;-84
2023/08/03 07:07:46;;;;;;;2.50;0.90;;;19.00;99.90;;;;;;4921271;28;20037;-85
2023/08/03 07:10:12;;;;;;;2.13;1.00;;;19.00;99.90;;;;;;4967553;28;20234;-84
2023/08/03 07:12:37;;;;;;;3.90;1.07;;;19.10;99.90;;;;;;4934510;28;20073;-86
2023/08/03 07:15:04;;;;;;;1.85;1.00;;;19.10;99.90;;;;;;4952352;28;20033;-83
2023/08/03 07:17:31;;;;;;;3.83;1.10;;;19.20;99.90;;;;;;4953854;28;20408;-83
2023/08/03 07:19:56;;;;;;;3.30;1.10;;;19.20;99.90;;;;;;4945764;28;20248;-85
2023/08/03 07:22:23;;;;;;;2.58;1.05;;;19.20;99.90;;;;;;4947665;28;20625;-86
2023/08/03 07:24:49;;;;;;;2.47;1.20;;;19.20;99.90;;;;;;4968288;28;20054;-87
2023/08/03 07:27:15;;;;;;;1.27;1.00;;;19.20;99.90;;;;;;4982058;28;20253;-82
2023/08/03 07:29:42;;;;;;;2.95;1.08;;;19.20;99.90;;;;;;4946786;28;20039;-88
2023/08/03 07:32:08;;;;;;;1.73;1.10;;;19.20;99.90;;;;;;4955918;28;20455;-82
2023/08/03 07:34:34;;;;;;;2.75;1.10;;;19.20;99.90;;;;;;4944922;28;20762;-83
2023/08/03 07:37:00;;;;;;;4.20;1.20;;;19.10;99.90;;;;;;4967204;28;20276;-84
2023/08/03 07:39:26;;;;;;;1.77;1.00;;;19.20;99.90;;;;;;4936115;28;20041;-85
2023/08/03 07:41:52;;;;;;;4.53;1.40;;;19.20;99.90;;;;;;4961857;28;20030;-87
2023/08/03 07:44:18;;;;;;;2.70;1.30;;;19.20;99.90;;;;;;4950570;28;20054;-83
2023/08/03 07:46:45;;;;;;;2.78;1.20;;;19.20;99.90;;;;;;4970724;28;20050;-84
2023/08/03 07:49:11;;;;;;;3.25;1.20;;;19.30;99.90;;;;;;4971989;28;20176;-84
2023/08/03 07:51:37;;;;;;;2.03;1.27;;;19.30;99.90;;;;;;4945333;28;20022;-86
2023/08/03 07:54:03;;;;;;;2.75;1.08;;;19.70;99.90;;;;;;4943324;28;20038;-83
2023/08/03 07:56:29;;;;;;;2.55;1.10;;;19.30;99.90;;;;;;4968309;28;20030;-83
2023/08/03 07:58:55;;;;;;;2.67;1.10;;;;;;;;;;4933585;28;20022;-85
2023/08/03 08:01:21;;;;;;;3.95;1.15;;;19.30;99.90;;;;;;4946258;28;20748;-83
2023/08/03 08:03:47;;;;;;;1.92;1.13;;;19.30;99.90;;;;;;4934334;28;20030;-86
2023/08/03 08:06:16;;;;;;;2.25;1.00;;;19.30;99.90;;;;;;4959529;28;20084;-84
2023/08/03 08:08:43;;;;;;;2.60;1.10;;;19.90;99.90;;;;;;4945503;28;20030;-85
2023/08/03 08:11:09;;;;;;;2.50;1.10;;;19.30;99.90;;;;;;4946216;28;20019;-85
2023/08/03 08:13:35;;;;;;;3.45;1.17;;;19.30;99.90;;;;;;4965421;28;20023;-86
2023/08/03 08:16:01;;;;;;;3.05;1.30;;;19.30;99.90;;;;;;4949450;28;20560;-83
2023/08/03 08:18:28;;;;;;;2.23;1.50;;;19.40;99.90;;;;;;4979429;28;20034;-84
2023/08/03 08:20:55;;;;;;;4.22;1.33;;;19.50;99.90;;;;;;4954990;28;20520;-84
2023/08/03 08:23:21;;;;;;;5.68;1.83;;;19.70;99.90;;;;;;4955506;28;20089;-85
2023/08/03 08:25:46;;;;;;;2.42;1.60;;;19.90;99.90;;;;;;4943401;28;20037;-87
2023/08/03 08:28:12;;;;;;;2.23;1.50;;;20.30;99.90;;;;;;4957923;28;20157;-85
2023/08/03 08:30:38;;;;;;;4.22;1.60;;;20.70;99.90;;;;;;4936918;28;20053;-83
2023/08/03 08:33:04;;;;;;;2.80;1.40;;;21.00;99.90;;;;;;4944236;28;20738;-87
2023/08/03 08:35:30;;;;;;;3.53;1.45;;;21.30;99.90;;;;;;4954996;28;20030;-82
2023/08/03 08:37:58;;;;;;;3.78;1.60;;;21.50;99.90;;;;;;4978185;28;20042;-81
2023/08/03 08:40:24;;;;;;;4.87;1.50;;;21.70;99.90;;;;;;4986404;28;20021;-82
2023/08/03 08:42:54;;;;;;;4.30;1.55;;;21.90;99.90;;;;;;4935260;28;20026;-85
2023/08/03 08:45:19;;;;;;;2.90;1.30;;;22.00;99.90;;;;;;4945970;28;20158;-83
2023/08/03 08:47:46;;;;;;;4.20;1.53;;;22.10;99.90;;;;;;4946719;28;20115;-85
2023/08/03 08:50:12;;;;;;;4.43;1.50;;;22.10;99.90;;;;;;4949835;28;20232;-86
2023/08/03 08:52:42;;;;;;;2.40;1.23;;;22.10;99.90;;;;;;4963150;28;20026;-87
2023/08/03 08:55:11;;;;;;;2.45;1.20;;;22.00;99.90;;;;;;4947404;28;20165;-83
2023/08/03 08:57:38;;;;;;;3.33;1.17;;;21.80;99.90;;;;;;4960010;28;20392;-87
2023/08/03 09:00:08;;;;;;;4.87;1.40;;;21.70;99.90;;;;;;4934160;28;20898;-85
2023/08/03 09:02:34;;;;;;;2.58;1.30;;;21.60;99.90;;;;;;4964719;28;20042;-84
2023/08/03 09:05:13;;;;;;;2.58;1.45;;;21.40;99.90;;;;;;4955026;28;21842;-84
2023/08/03 09:07:39;;;;;;;2.65;1.40;;;21.30;99.90;;;;;;4957153;28;20034;-87
2023/08/03 09:10:06;;;;;;;3.47;1.50;;;21.20;99.90;;;;;;4948140;28;20022;-83
2023/08/03 09:12:31;;;;;;;2.47;1.40;;;21.30;99.90;;;;;;4949720;28;20096;-84
2023/08/03 09:14:58;;;;;;;3.47;1.60;;;18.70;99.90;;;;;;4929842;28;20173;-85
2023/08/03 09:17:25;;;;;;;2.10;1.23;;;21.40;99.90;;;;;;4953528;28;20041;-82
2023/08/03 09:19:51;;;;;;;3.03;1.50;;;21.40;99.90;;;;;;4974021;28;20038;-85
2023/08/03 09:22:18;;;;;;;2.90;1.40;;;21.40;99.90;;;;;;4960611;28;20026;-83
2023/08/03 09:24:47;;;;;;;2.45;1.27;;;21.50;99.90;;;;;;4971869;28;20038;-84
2023/08/03 09:27:16;;;;;;;2.75;1.20;;;21.50;99.90;;;;;;4982612;28;20102;-86
2023/08/03 09:29:43;;;;;;;2.78;1.30;;;21.50;99.90;;;;;;4967229;28;20034;-83
2023/08/03 09:32:09;;;;;;;4.82;1.60;;;21.50;99.90;;;;;;4951944;28;20092;-84
2023/08/03 09:34:40;;;;;;;4.67;1.50;;;21.60;99.90;;;;;;4955437;28;20491;-86
2023/08/03 09:37:10;;;;;;;3.97;1.48;;;21.60;99.90;;;;;;4952175;28;20613;-83
2023/08/03 09:39:38;;;;;;;3.47;1.52;;;21.70;99.90;;;;;;4951543;28;20389;-84
2023/08/03 09:42:09;;;;;;;4.15;1.50;;;21.70;99.90;;;;;;4982759;28;20017;-84
2023/08/03 09:44:38;;;;;;;2.38;1.45;;;21.60;99.90;;;;;;4948880;28;20034;-85
2023/08/03 09:47:04;;;;;;;2.80;1.40;;;21.60;99.90;;;;;;4935363;28;20236;-83
2023/08/03 09:49:31;;;;;;;2.72;1.30;;;21.60;99.90;;;;;;4971336;28;20018;-83
2023/08/03 09:51:59;;;;;;;2.83;1.20;;;21.60;99.90;;;;;;4948627;28;22516;-85
2023/08/03 09:54:34;;;;;;;1.48;1.10;;;21.60;99.90;;;;;;4984014;28;20027;-84
2023/08/03 09:57:07;;;;;;;2.67;1.10;;;21.60;99.90;;;;;;4970149;28;20129;-82
2023/08/03 09:59:35;;;;;;;3.37;1.20;;;21.60;99.90;;;;;;4979880;28;20030;-82
2023/08/03 10:02:05;;;;;;;1.95;1.10;;;21.60;99.90;;;;;;4950811;28;21822;-84
2023/08/03 10:04:39;;;;;;;2.35;1.10;;;21.50;99.90;;;;;;4946190;28;20104;-84
2023/08/03 10:07:09;;;;;;;3.42;1.00;;;21.60;99.90;;;;;;4972484;28;20984;-83
2023/08/03 10:09:42;;;;;;;2.70;1.30;;;21.60;99.90;;;;;;4979920;28;20048;-87
2023/08/03 10:12:16;;;;;;;2.37;1.33;;;21.60;99.90;;;;;;4984697;28;20608;-82
2023/08/03 10:14:43;;;;;;;2.38;1.10;;;21.60;99.90;;;;;;4931617;28;20022;-85
2023/08/03 10:17:11;;;;;;;1.90;0.93;;;21.50;99.90;;;;;;4930744;28;20419;-85
2023/08/03 10:19:41;;;;;;;1.60;0.98;;;21.50;99.90;;;;;;4952110;28;20512;-85
2023/08/03 10:22:08;;;;;;;1.38;0.90;;;21.40;99.90;;;;;;4965201;28;20313;-82
2023/08/03 10:24:34;;;;;;;2.60;1.00;;;21.40;99.90;;;;;;4954049;28;20061;-84
2023/08/03 10:27:19;;;;;;;3.38;1.10;;;21.30;99.90;;;;;;4943281;28;20524;-83
2023/08/03 10:29:56;;;;;;;1.95;1.00;;;21.30;99.90;;;;;;4944326;28;20018;-84
2023/08/03 10:32:24;;;;;;;2.10;0.90;;;21.30;99.90;;;;;;4963372;28;20388;-83
2023/08/03 10:34:56;;;;;;;1.63;0.90;;;21.30;99.90;;;;;;4941456;28;20030;-84
2023/08/03 10:37:22;;;;;;;2.40;0.90;;;21.30;99.90;;;;;;4970542;28;20419;-84
2023/08/03 10:39:54;;;;;;;1.60;1.13;;;21.30;99.90;;;;;;4951877;28;20029;-83
2023/08/03 10:42:21;;;;;;;1.67;1.00;;;21.30;99.90;;;;;;4955523;28;20022;-82
2023/08/03 10:44:47;;;;;;;2.25;0.95;;;21.30;99.90;;;;;;4940531;28;20022;-85
2023/08/03 10:47:28;;;;;;;1.23;1.10;;;21.30;99.90;;;;;;4945502;28;20080;-80
2023/08/03 10:49:56;;;;;;;1.38;1.02;;;21.40;99.90;;;;;;4950820;28;20037;-84
2023/08/03 10:52:30;;;;;;;2.13;1.02;;;22.30;99.90;;;;;;4956153;28;20357;-82
2023/08/03 10:55:18;;;;;;;1.83;0.90;;;21.50;99.90;;;;;;4942285;28;20252;-83
2023/08/03 10:57:44;;;;;;;2.17;1.00;;;21.60;99.90;;;;;;4964011;28;20531;-84
2023/08/03 11:00:12;;;;;;;2.03;0.90;;;21.70;99.90;;;;;;4942431;28;20034;-82
2023/08/03 11:02:42;;;;;;;1.58;0.90;;;21.70;99.90;;;;;;4942569;28;20030;-84
2023/08/03 11:05:11;;;;;;;1.65;1.05;;;23.50;99.90;;;;;;4962645;28;20233;-81
2023/08/03 11:07:45;;;;;;;2.47;1.00;;;21.90;99.90;;;;;;4951645;28;20022;-84
2023/08/03 11:10:14;;;;;;;2.90;1.10;;;22.00;99.90;;;;;;4970652;28;20095;-81
2023/08/03 11:12:42;;;;;;;2.05;1.00;;;22.00;99.90;;;;;;4979302;28;20025;-85
2023/08/03 11:15:08;;;;;;;2.30;0.90;;;22.10;99.90;;;;;;4945480;28;20098;-85
2023/08/03 11:17:36;;;;;;;2.63;1.15;;;22.10;99.90;;;;;;4932571;28;20088;-85
2023/08/03 11:20:07;;;;;;;2.45;1.17;;;22.00;99.90;;;;;;4966111;28;20435;-83
2023/08/03 11:22:33;;;;;;;1.87;1.00;;;22.00;99.90;;;;;;4965097;28;20149;-85
2023/08/03 11:25:02;;;;;;;2.10;1.10;;;21.90;99.90;;;;;;4946614;28;20180;-85
2023/08/03 11:27:29;;;;;;;2.08;0.82;;;21.80;99.90;;;;;;4962115;28;20031;-81
2023/08/03 11:29:56;;;;;;;2.28;1.15;;;21.80;99.90;;;;;;4957890;28;20245;-83
2023/08/03 11:32:27;;;;;;;1.38;1.10;;;21.70;99.90;;;;;;4979546;28;20030;-83
2023/08/03 11:35:04;;;;;;;1.57;1.10;;;21.70;99.90;;;;;;4931669;28;20467;-82
2023/08/03 11:37:37;;;;;;;1.88;1.02;;;21.60;99.90;;;;;;4952310;28;20767;-83
2023/08/03 11:40:05;;;;;;;1.73;1.10;;;21.60;99.90;;;;;;4952386;28;20619;-81
2023/08/03 11:42:32;;;;;;;1.67;0.90;;;21.70;99.90;;;;;;4962361;28;20068;-83
2023/08/03 11:44:58;;;;;;;1.35;0.90;;;21.70;99.90;;;;;;4959338;28;20634;-82
2023/08/03 11:47:24;;;;;;;1.30;0.90;;;21.70;99.90;;;;;;4965500;28;20121;-82
2023/08/03 11:49:52;;;;;;;2.15;1.00;;;21.70;99.90;;;;;;4927079;28;20030;-86
2023/08/03 11:52:22;;;;;;;1.48;0.80;;;21.70;99.90;;;;;;4951298;28;20051;-81
2023/08/03 11:54:48;;;;;;;1.83;1.00;;;21.60;99.90;;;;;;4951946;28;20440;-85
2023/08/03 12:00:01;;;;;;;1.55;0.90;;;21.60;99.90;;;;;;4959050;28;20630;-83
2023/08/03 12:02:41;;;;;;;2.38;1.00;;;21.50;99.90;;;;;;4963964;28;20105;-82
2023/08/03 12:05:07;;;;;;;1.08;0.80;;;21.50;99.90;;;;;;4962305;28;20049;-83
2023/08/03 12:07:33;;;;;;;2.27;1.00;;;21.40;99.90;;;;;;4947616;28;20039;-83
2023/08/03 12:09:59;;;;;;;1.55;0.90;;;21.40;99.90;;;;;;4946318;28;20048;-82
2023/08/03 12:12:25;;;;;;;2.60;0.90;;;21.30;99.90;;;;;;4951985;28;20033;-83
2023/08/03 12:14:51;;;;;;;2.03;1.00;;;21.30;99.90;;;;;;4945846;28;20027;-84
2023/08/03 12:17:17;;;;;;;1.50;1.00;;;21.30;99.90;;;;;;4967352;28;20032;-82
2023/08/03 12:19:44;;;;;;;1.67;0.90;;;21.30;99.90;;;;;;4952234;28;20384;-88
2023/08/03 12:22:09;;;;;;;2.60;1.20;;;21.30;99.90;;;;;;4932403;28;20348;-84
2023/08/03 12:24:35;;;;;;;2.47;1.17;;;21.30;99.90;;;;;;4952898;28;20091;-85
2023/08/03 12:27:02;;;;;;;2.15;1.00;;;21.40;99.90;;;;;;4946841;28;20345;-81
2023/08/03 12:29:28;;;;;;;2.63;1.15;;;21.30;99.90;;;;;;4938748;28;20022;-81
2023/08/03 12:31:54;;;;;;;3.90;1.20;;;21.30;99.90;;;;;;4945369;28;20026;-81
2023/08/03 12:34:19;;;;;;;2.53;1.10;;;21.30;99.90;;;;;;4963810;28;20100;-82
2023/08/03 12:36:45;;;;;;;1.73;1.10;;;21.30;99.90;;;;;;4964285;28;20026;-84
2023/08/03 12:39:11;;;;;;;2.33;1.20;;;21.40;99.90;;;;;;4952856;28;20041;-83
2023/08/03 12:41:37;;;;;;;4.47;1.37;;;21.50;99.90;;;;;;4950686;28;20133;-84
2023/08/03 12:44:02;;;;;;;2.25;1.10;;;21.60;99.90;;;;;;4958045;28;20022;-81
2023/08/03 12:46:30;;;;;;;3.13;1.30;;;21.80;99.90;;;;;;4969398;28;20033;-84
2023/08/03 12:48:58;;;;;;;2.17;1.10;;;21.90;99.90;;;;;;4959916;28;20033;-81
2023/08/03 12:51:24;;;;;;;3.60;1.10;;;22.10;99.90;;;;;;4930542;28;20031;-83